createdAt,value
2019-03-26T00:00:09.408Z,0.60
2019-03-26T00:02:38.481Z,0.70
2019-03-26T00:05:07.273Z,0.75
2019-03-26T00:07:36.141Z,1.10
2019-03-26T00:10:05.436Z,0.90
2019-03-26T00:12:34.258Z,0.85
2019-03-26T00:15:03.194Z,0.90
2019-03-26T00:17:32.008Z,0.90
2019-03-26T00:20:00.895Z,1.22
2019-03-26T00:22:29.896Z,0.82
2019-03-26T00:24:58.916Z,1.00
2019-03-26T00:27:27.751Z,1.00
2019-03-26T00:29:56.676Z,0.80
2019-03-26T00:32:25.593Z,0.93
2019-03-26T00:34:54.484Z,0.60
2019-03-26T00:37:23.345Z,1.07
2019-03-26T00:39:52.264Z,0.80
2019-03-26T00:42:21.159Z,0.93
2019-03-26T00:44:50.329Z,0.95
2019-03-26T00:47:19.224Z,0.90
2019-03-26T00:49:48.041Z,1.10
2019-03-26T00:52:17.143Z,1.12
2019-03-26T00:54:45.997Z,1.42
2019-03-26T00:57:14.923Z,0.95
2019-03-26T00:59:43.810Z,0.93
2019-03-26T01:02:14.550Z,1.25
2019-03-26T01:04:43.233Z,1.32
2019-03-26T01:07:12.129Z,1.00
2019-03-26T01:09:41.020Z,1.05
2019-03-26T01:12:09.882Z,1.40
2019-03-26T01:14:38.776Z,1.70
2019-03-26T01:17:07.772Z,1.15
2019-03-26T01:19:36.607Z,1.15
2019-03-26T01:22:05.682Z,1.00
2019-03-26T01:24:34.500Z,1.25
2019-03-26T01:27:03.466Z,1.50
2019-03-26T01:29:32.434Z,0.88
2019-03-26T01:32:01.452Z,1.37
2019-03-26T01:34:30.294Z,1.40
2019-03-26T01:36:59.247Z,1.37
2019-03-26T01:39:28.132Z,1.30
2019-03-26T01:41:57.021Z,1.10
2019-03-26T01:44:25.913Z,0.90
2019-03-26T01:46:54.779Z,1.30
2019-03-26T01:49:23.906Z,1.42
2019-03-26T01:51:52.794Z,1.20
2019-03-26T01:54:21.686Z,1.40
2019-03-26T01:56:50.581Z,0.95
2019-03-26T01:59:19.439Z,1.30
2019-03-26T02:01:48.363Z,1.17
2019-03-26T02:04:17.252Z,1.07
2019-03-26T02:06:46.221Z,1.10
2019-03-26T02:09:15.011Z,1.10
2019-03-26T02:11:43.801Z,1.07
2019-03-26T02:14:12.666Z,1.25
2019-03-26T02:16:41.915Z,1.10
2019-03-26T02:19:10.809Z,0.88
2019-03-26T02:21:39.652Z,1.47
2019-03-26T02:24:08.598Z,1.40
2019-03-26T02:26:37.461Z,1.30
2019-03-26T02:29:06.376Z,1.40
2019-03-26T02:31:35.175Z,1.65
2019-03-26T02:34:03.973Z,1.50
2019-03-26T02:36:32.717Z,1.57
2019-03-26T02:39:01.632Z,1.80
2019-03-26T02:41:30.518Z,1.42
2019-03-26T02:43:59.344Z,1.40
2019-03-26T02:46:28.210Z,1.35
2019-03-26T02:48:56.937Z,1.32
2019-03-26T02:51:25.763Z,1.02
2019-03-26T02:53:54.654Z,1.10
2019-03-26T02:56:23.572Z,0.90
2019-03-26T02:58:52.475Z,1.20
2019-03-26T03:01:21.356Z,1.12
2019-03-26T03:03:50.226Z,1.07
2019-03-26T03:06:19.110Z,0.90
2019-03-26T03:08:48.440Z,1.42
2019-03-26T03:11:18.541Z,1.20
2019-03-26T03:13:47.694Z,1.50
2019-03-26T03:16:16.758Z,1.30
2019-03-26T03:18:45.616Z,1.25
2019-03-26T03:21:14.509Z,1.47
2019-03-26T03:23:43.430Z,1.40
2019-03-26T03:26:12.324Z,1.82
2019-03-26T03:28:41.215Z,1.85
2019-03-26T03:31:10.069Z,2.00
2019-03-26T03:33:39.010Z,2.02
2019-03-26T03:36:07.891Z,2.02
2019-03-26T03:38:36.787Z,2.25
2019-03-26T03:41:06.084Z,1.67
2019-03-26T03:43:34.888Z,2.62
2019-03-26T03:46:04.626Z,2.10
2019-03-26T03:48:34.474Z,1.65
2019-03-26T03:51:04.562Z,2.65
2019-03-26T03:53:33.494Z,2.10
2019-03-26T03:56:03.318Z,2.85
2019-03-26T03:58:33.812Z,3.65
2019-03-26T04:01:02.725Z,2.92
2019-03-26T04:03:31.619Z,2.58
2019-03-26T04:06:08.766Z,1.98
2019-03-26T04:08:32.024Z,2.30
2019-03-26T04:11:00.977Z,3.12
2019-03-26T04:13:29.885Z,2.85
2019-03-26T04:15:58.765Z,3.20
2019-03-26T04:18:27.657Z,2.95
2019-03-26T04:20:56.513Z,2.30
2019-03-26T04:23:25.438Z,3.40
2019-03-26T04:25:54.227Z,3.75
2019-03-26T04:28:23.097Z,3.17
2019-03-26T04:30:51.884Z,3.45
2019-03-26T04:33:20.801Z,2.70
2019-03-26T04:35:49.655Z,2.83
2019-03-26T04:38:18.786Z,2.65
2019-03-26T04:40:47.649Z,2.80
2019-03-26T04:43:19.035Z,3.35
2019-03-26T04:45:47.102Z,3.65
2019-03-26T04:48:15.961Z,3.40
2019-03-26T04:50:44.853Z,3.67
2019-03-26T04:53:13.777Z,3.47
2019-03-26T04:55:42.668Z,3.75
2019-03-26T04:58:13.384Z,4.08
2019-03-26T05:00:42.297Z,3.87
2019-03-26T05:03:11.169Z,3.70
2019-03-26T05:05:40.151Z,3.83
2019-03-26T05:08:09.041Z,3.83
2019-03-26T05:10:37.861Z,3.87
2019-03-26T05:13:06.756Z,3.62
2019-03-26T05:15:35.621Z,3.35
2019-03-26T05:18:04.494Z,3.50
2019-03-26T05:20:33.286Z,3.58
2019-03-26T05:23:02.096Z,3.50
2019-03-26T05:25:31.007Z,3.30
2019-03-26T05:27:59.903Z,3.47
2019-03-26T05:30:28.836Z,3.67
2019-03-26T05:32:57.663Z,3.77
2019-03-26T05:35:26.552Z,3.52
2019-03-26T05:37:55.352Z,3.33
2019-03-26T05:40:24.155Z,3.40
2019-03-26T05:42:53.046Z,3.30
2019-03-26T05:45:21.943Z,2.95
2019-03-26T05:47:50.829Z,3.10
2019-03-26T05:50:19.693Z,3.87
2019-03-26T05:52:48.614Z,3.60
2019-03-26T05:55:17.710Z,3.13
2019-03-26T05:57:46.604Z,3.45
2019-03-26T06:00:17.546Z,3.67
2019-03-26T06:02:46.331Z,2.95
2019-03-26T06:05:16.868Z,2.72
2019-03-26T06:07:45.858Z,2.90
2019-03-26T06:10:15.141Z,3.10
2019-03-26T06:12:44.055Z,3.25
2019-03-26T06:15:12.949Z,4.00
2019-03-26T06:17:41.836Z,4.10
2019-03-26T06:20:11.130Z,3.20
2019-03-26T06:22:40.007Z,3.20
2019-03-26T06:25:09.339Z,3.27
2019-03-26T06:27:38.156Z,3.77
2019-03-26T06:30:09.010Z,3.73
2019-03-26T06:32:38.261Z,3.13
2019-03-26T06:35:11.209Z,3.97
2019-03-26T06:37:40.137Z,4.50
2019-03-26T06:40:10.463Z,3.33
2019-03-26T06:42:39.224Z,3.20
2019-03-26T06:45:09.478Z,4.67
2019-03-26T06:47:38.754Z,3.60
2019-03-26T06:50:09.923Z,3.17
2019-03-26T06:52:38.815Z,3.90
2019-03-26T06:55:08.729Z,3.67
2019-03-26T06:57:38.059Z,3.40
2019-03-26T07:00:09.798Z,3.67
2019-03-26T07:02:38.681Z,4.47
2019-03-26T07:05:08.779Z,3.93
2019-03-26T07:07:37.664Z,4.23
2019-03-26T07:10:08.420Z,4.53
2019-03-26T07:12:37.294Z,3.73
2019-03-26T07:15:07.730Z,3.07
2019-03-26T07:17:36.618Z,2.80
2019-03-26T07:20:08.299Z,3.67
2019-03-26T07:22:37.125Z,6.40
2019-03-26T07:25:08.530Z,5.10
2019-03-26T07:27:37.593Z,3.93
2019-03-26T07:30:08.662Z,3.40
2019-03-26T07:32:37.542Z,4.23
2019-03-26T07:35:07.850Z,4.17
2019-03-26T07:37:44.983Z,4.33
2019-03-26T07:40:09.064Z,3.87
2019-03-26T07:42:37.952Z,3.97
2019-03-26T07:45:08.054Z,4.43
2019-03-26T07:47:36.939Z,4.43
2019-03-26T07:50:07.876Z,3.97
2019-03-26T07:52:36.796Z,4.87
2019-03-26T07:55:07.809Z,4.70
2019-03-26T07:57:36.833Z,3.87
2019-03-26T08:00:11.260Z,4.13
2019-03-26T08:02:40.100Z,4.50
2019-03-26T08:05:13.517Z,3.93
2019-03-26T08:07:42.643Z,3.93
2019-03-26T08:10:11.618Z,4.23
2019-03-26T08:12:40.461Z,4.17
2019-03-26T08:15:09.566Z,4.17
2019-03-26T08:17:46.909Z,4.10
2019-03-26T08:20:16.336Z,3.97
2019-03-26T08:22:45.210Z,3.57
2019-03-26T08:25:14.011Z,4.27
2019-03-26T08:27:43.403Z,4.30
2019-03-26T08:30:13.279Z,3.93
2019-03-26T08:32:42.212Z,4.03
2019-03-26T08:35:11.105Z,4.20
2019-03-26T08:37:39.995Z,3.73
2019-03-26T08:40:09.325Z,4.10
2019-03-26T08:42:38.148Z,3.07
2019-03-26T08:45:08.430Z,3.63
2019-03-26T08:47:37.408Z,3.30
2019-03-26T08:50:07.733Z,3.07
2019-03-26T08:52:36.629Z,3.40
2019-03-26T08:55:07.944Z,2.27
2019-03-26T08:57:37.846Z,3.30
2019-03-26T09:00:09.557Z,2.90
2019-03-26T09:02:38.350Z,3.13
2019-03-26T09:05:07.994Z,2.67
2019-03-26T09:07:36.803Z,2.70
2019-03-26T09:10:08.804Z,2.63
2019-03-26T09:12:39.567Z,1.83
2019-03-26T09:15:09.368Z,2.27
2019-03-26T09:17:38.583Z,1.70
2019-03-26T09:20:09.410Z,1.80
2019-03-26T09:22:38.316Z,2.20
2019-03-26T09:25:07.902Z,2.43
2019-03-26T09:27:36.778Z,2.40
2019-03-26T09:30:08.948Z,1.93
2019-03-26T09:32:38.277Z,2.50
2019-03-26T09:35:08.842Z,2.20
2019-03-26T09:37:37.877Z,1.97
2019-03-26T09:40:08.819Z,1.87
2019-03-26T09:42:38.285Z,2.07
2019-03-26T09:45:11.391Z,1.67
2019-03-26T09:47:40.616Z,1.70
2019-03-26T09:50:11.209Z,2.20
2019-03-26T09:52:40.317Z,1.43
2019-03-26T09:55:09.905Z,2.10
2019-03-26T09:57:38.741Z,2.20
2019-03-26T10:00:10.285Z,1.83
2019-03-26T10:02:42.746Z,1.87
2019-03-26T10:05:10.440Z,2.00
2019-03-26T10:07:39.294Z,1.23
2019-03-26T10:10:09.244Z,2.17
2019-03-26T10:12:38.342Z,2.20
2019-03-26T10:15:07.683Z,2.00
2019-03-26T10:17:37.069Z,2.33
2019-03-26T10:20:09.123Z,1.87
2019-03-26T10:22:38.619Z,1.67
2019-03-26T10:25:11.553Z,1.33
2019-03-26T10:27:40.683Z,0.97
2019-03-26T10:30:12.460Z,1.77
2019-03-26T10:32:41.764Z,1.27
2019-03-26T10:35:12.002Z,2.30
2019-03-26T10:37:41.185Z,2.00
2019-03-26T10:40:12.963Z,1.97
2019-03-26T10:42:42.040Z,1.90
2019-03-26T10:45:11.134Z,1.77
2019-03-26T10:47:40.108Z,1.93
2019-03-26T10:50:09.330Z,1.00
2019-03-26T10:52:38.224Z,1.87
2019-03-26T10:55:07.205Z,1.57
2019-03-26T10:57:36.425Z,2.03
2019-03-26T11:00:07.253Z,2.00
2019-03-26T11:02:36.117Z,1.47
2019-03-26T11:05:06.490Z,1.90
2019-03-26T11:07:35.332Z,1.47
2019-03-26T11:10:08.041Z,1.47
2019-03-26T11:12:37.138Z,1.90
2019-03-26T11:15:08.006Z,1.83
2019-03-26T11:17:37.179Z,1.90
2019-03-26T11:20:08.320Z,2.30
2019-03-26T11:22:37.213Z,1.63
2019-03-26T11:25:07.080Z,2.60
2019-03-26T11:27:35.957Z,1.80
2019-03-26T11:30:07.331Z,1.97
2019-03-26T11:32:36.266Z,1.70
2019-03-26T11:35:07.198Z,1.40
2019-03-26T11:37:35.972Z,1.40
2019-03-26T11:40:07.655Z,1.90
2019-03-26T11:42:36.540Z,1.70
2019-03-26T11:45:08.175Z,2.10
2019-03-26T11:47:37.503Z,1.50
2019-03-26T11:50:06.785Z,1.97
2019-03-26T11:52:35.530Z,1.63
2019-03-26T11:55:05.813Z,1.70
2019-03-26T11:57:34.704Z,1.13
2019-03-26T12:00:05.517Z,1.30
2019-03-26T12:02:34.541Z,1.30
2019-03-26T12:05:04.149Z,1.27
2019-03-26T12:07:32.935Z,1.20
2019-03-26T12:10:01.803Z,1.70
2019-03-26T12:12:30.619Z,1.30
2019-03-26T12:14:59.464Z,1.17
2019-03-26T12:17:28.375Z,1.60
2019-03-26T12:19:57.269Z,1.50
2019-03-26T12:22:26.286Z,1.80
2019-03-26T12:24:55.179Z,1.63
2019-03-26T12:27:24.271Z,1.77
2019-03-26T12:29:52.995Z,1.73
2019-03-26T12:32:22.056Z,1.30
2019-03-26T12:34:51.153Z,1.83
2019-03-26T12:37:20.047Z,1.23
2019-03-26T12:39:58.959Z,1.20
2019-03-26T12:42:19.673Z,1.03
2019-03-26T12:44:48.562Z,0.83
2019-03-26T12:47:17.455Z,1.30
2019-03-26T12:49:46.354Z,0.90
2019-03-26T12:52:15.241Z,1.30
2019-03-26T12:54:44.136Z,0.83
2019-03-26T12:57:14.001Z,1.27
2019-03-26T12:59:43.051Z,1.70
2019-03-26T13:02:12.445Z,1.40
2019-03-26T13:04:41.414Z,1.30
2019-03-26T13:07:10.436Z,1.03
2019-03-26T13:09:41.728Z,1.30
2019-03-26T13:12:11.806Z,0.90
2019-03-26T13:14:40.605Z,1.13
2019-03-26T13:17:09.687Z,1.00
2019-03-26T13:19:40.479Z,1.57
2019-03-26T13:22:09.195Z,1.40
2019-03-26T13:24:38.105Z,1.23
2019-03-26T13:27:06.962Z,0.87
2019-03-26T13:29:37.863Z,1.43
2019-03-26T13:32:06.831Z,1.53
2019-03-26T13:34:35.827Z,1.20
2019-03-26T13:37:04.648Z,1.40
2019-03-26T13:39:34.497Z,1.73
2019-03-26T13:42:03.402Z,1.70
2019-03-26T13:44:32.391Z,1.40
2019-03-26T13:47:01.415Z,1.17
2019-03-26T13:49:30.282Z,1.20
2019-03-26T13:51:59.296Z,1.67
2019-03-26T13:54:28.380Z,1.40
2019-03-26T13:56:57.232Z,1.40
2019-03-26T13:59:26.180Z,0.83
2019-03-26T14:01:54.997Z,1.60
2019-03-26T14:04:23.964Z,2.17
2019-03-26T14:06:53.060Z,1.13
2019-03-26T14:09:21.950Z,2.00
2019-03-26T14:11:51.865Z,1.47
2019-03-26T14:14:20.734Z,1.67
2019-03-26T14:16:50.055Z,1.80
2019-03-26T14:19:19.153Z,1.73
2019-03-26T14:21:48.047Z,1.53
2019-03-26T14:24:17.147Z,1.53
2019-03-26T14:26:46.238Z,1.97
2019-03-26T14:29:15.129Z,1.57
2019-03-26T14:31:44.228Z,1.50
2019-03-26T14:34:13.041Z,1.53
2019-03-26T14:36:42.012Z,1.90
2019-03-26T14:39:11.110Z,1.40
2019-03-26T14:41:40.207Z,1.97
2019-03-26T14:44:09.305Z,1.53
2019-03-26T14:46:41.675Z,1.70
2019-03-26T14:49:10.567Z,1.60
2019-03-26T14:51:39.460Z,1.70
2019-03-26T14:54:08.554Z,1.83
2019-03-26T14:56:37.451Z,2.13
2019-03-26T14:59:06.543Z,1.77
2019-03-26T15:01:36.409Z,1.57
2019-03-26T15:04:05.560Z,2.30
2019-03-26T15:06:34.472Z,1.90
2019-03-26T15:09:04.985Z,1.87
2019-03-26T15:11:33.725Z,1.93
2019-03-26T15:14:02.769Z,1.80
2019-03-26T15:16:31.657Z,1.77
2019-03-26T15:19:00.751Z,2.13
2019-03-26T15:21:29.849Z,1.70
2019-03-26T15:23:58.740Z,1.83
2019-03-26T15:26:27.836Z,1.70
2019-03-26T15:28:56.934Z,2.33
2019-03-26T15:31:26.031Z,2.27
2019-03-26T15:33:55.127Z,1.70
2019-03-26T15:36:24.226Z,2.27
2019-03-26T15:38:53.319Z,1.90
2019-03-26T15:41:22.829Z,2.50
2019-03-26T15:43:51.927Z,2.13
2019-03-26T15:46:21.021Z,2.20
2019-03-26T15:48:50.117Z,1.90
2019-03-26T15:51:19.187Z,1.47
2019-03-26T15:53:48.207Z,1.67
2019-03-26T15:56:17.201Z,2.33
2019-03-26T15:58:46.378Z,1.60
2019-03-26T16:01:15.598Z,2.20
2019-03-26T16:03:45.070Z,1.90
2019-03-26T16:06:14.210Z,2.17
2019-03-26T16:08:43.504Z,2.23
2019-03-26T16:11:12.601Z,2.20
2019-03-26T16:13:41.712Z,2.23
2019-03-26T16:16:10.920Z,2.33
2019-03-26T16:18:40.004Z,1.70
2019-03-26T16:21:09.300Z,1.77
2019-03-26T16:23:38.259Z,1.77
2019-03-26T16:26:07.796Z,1.97
2019-03-26T16:28:36.895Z,1.93
2019-03-26T16:31:05.821Z,2.13
2019-03-26T16:33:34.826Z,1.57
2019-03-26T16:36:03.768Z,1.90
2019-03-26T16:38:32.875Z,2.10
2019-03-26T16:41:02.018Z,2.60
2019-03-26T16:43:31.064Z,2.70
2019-03-26T16:46:00.369Z,2.30
2019-03-26T16:48:29.459Z,1.90
2019-03-26T16:50:58.564Z,2.10
2019-03-26T16:53:28.063Z,2.43
2019-03-26T16:55:57.160Z,2.50
2019-03-26T16:58:26.460Z,2.70
2019-03-26T17:00:55.695Z,2.57
2019-03-26T17:03:31.108Z,2.30
2019-03-26T17:05:55.661Z,2.53
2019-03-26T17:08:24.693Z,3.10
2019-03-26T17:10:53.995Z,2.47
2019-03-26T17:13:23.218Z,3.03
2019-03-26T17:15:52.307Z,2.33
2019-03-26T17:18:21.489Z,3.00
2019-03-26T17:20:50.502Z,2.40
2019-03-26T17:23:19.681Z,1.83
2019-03-26T17:25:48.847Z,2.30
2019-03-26T17:28:19.311Z,3.53
2019-03-26T17:30:48.817Z,2.83
2019-03-26T17:33:17.912Z,2.00
2019-03-26T17:35:47.008Z,3.07
2019-03-26T17:38:16.309Z,3.37
2019-03-26T17:40:45.408Z,2.77
2019-03-26T17:43:14.811Z,1.30
2019-03-26T17:45:43.884Z,3.23
2019-03-26T17:48:12.857Z,3.50
2019-03-26T17:50:42.304Z,2.97
2019-03-26T17:53:11.252Z,3.00
2019-03-26T17:55:40.313Z,2.23
2019-03-26T17:58:09.608Z,2.87
2019-03-26T18:00:41.973Z,3.00
2019-03-26T18:03:25.241Z,3.20
2019-03-26T18:05:43.078Z,3.13
2019-03-26T18:08:12.540Z,2.50
2019-03-26T18:10:41.735Z,2.40
2019-03-26T18:13:10.936Z,3.30
2019-03-26T18:15:40.439Z,2.50
2019-03-26T18:18:11.340Z,3.20
2019-03-26T18:20:40.636Z,3.10
2019-03-26T18:23:09.984Z,3.63
2019-03-26T18:25:39.256Z,1.87
2019-03-26T18:28:08.592Z,2.63
2019-03-26T18:30:37.895Z,2.60
2019-03-26T18:33:08.625Z,3.17
2019-03-26T18:35:38.745Z,2.80
2019-03-26T18:38:08.045Z,2.77
2019-03-26T18:40:37.074Z,2.20
2019-03-26T18:43:06.651Z,3.03
2019-03-26T18:45:35.637Z,2.23
2019-03-26T18:48:04.773Z,2.67
2019-03-26T18:50:33.711Z,2.67
2019-03-26T18:53:02.952Z,2.83
2019-03-26T18:55:32.338Z,2.90
2019-03-26T18:58:01.432Z,2.80
2019-03-26T19:00:35.704Z,2.03
2019-03-26T19:03:05.036Z,2.70
2019-03-26T19:05:34.131Z,3.17
2019-03-26T19:08:03.559Z,2.57
2019-03-26T19:10:36.662Z,2.63
2019-03-26T19:13:18.762Z,2.83
2019-03-26T19:15:36.794Z,3.20
2019-03-26T19:18:06.086Z,2.67
2019-03-26T19:20:35.119Z,2.10
2019-03-26T19:23:04.690Z,2.73
2019-03-26T19:25:35.251Z,2.73
2019-03-26T19:28:04.373Z,2.70
2019-03-26T19:30:35.049Z,2.70
2019-03-26T19:33:05.571Z,3.00
2019-03-26T19:35:35.523Z,3.10
2019-03-26T19:38:04.456Z,2.77
2019-03-26T19:40:33.551Z,1.97
2019-03-26T19:43:10.681Z,1.87
2019-03-26T19:45:33.808Z,3.27
2019-03-26T19:48:04.299Z,3.00
2019-03-26T19:50:33.250Z,1.93
2019-03-26T19:53:02.452Z,1.83
2019-03-26T19:55:31.547Z,3.17
2019-03-26T19:58:00.643Z,2.47
2019-03-26T20:00:29.657Z,3.87
2019-03-26T20:02:59.042Z,2.73
2019-03-26T20:05:28.138Z,4.40
2019-03-26T20:07:57.262Z,2.23
2019-03-26T20:10:26.836Z,1.07
2019-03-26T20:12:56.383Z,2.80
2019-03-26T20:15:25.961Z,2.93
2019-03-26T20:17:55.466Z,1.87
2019-03-26T20:20:26.405Z,4.20
2019-03-26T20:22:57.139Z,2.10
2019-03-26T20:25:26.365Z,2.80
2019-03-26T20:27:55.547Z,2.33
2019-03-26T20:30:24.844Z,4.37
2019-03-26T20:32:54.242Z,4.23
2019-03-26T20:35:23.499Z,2.90
2019-03-26T20:37:52.600Z,3.57
2019-03-26T20:40:21.844Z,3.17
2019-03-26T20:42:52.575Z,4.63
2019-03-26T20:45:22.493Z,3.47
2019-03-26T20:47:51.793Z,2.97
2019-03-26T20:50:21.305Z,3.83
2019-03-26T20:52:50.399Z,4.90
2019-03-26T20:55:22.566Z,3.80
2019-03-26T20:57:53.298Z,3.23
2019-03-26T21:00:25.526Z,5.00
2019-03-26T21:02:54.770Z,2.47
2019-03-26T21:05:24.121Z,4.60
2019-03-26T21:07:53.783Z,4.00
2019-03-26T21:10:23.088Z,4.63
2019-03-26T21:12:52.187Z,4.37
2019-03-26T21:15:22.712Z,4.60
2019-03-26T21:17:52.016Z,5.33
2019-03-26T21:20:21.314Z,4.70
2019-03-26T21:22:50.618Z,6.23
2019-03-26T21:25:19.919Z,5.47
2019-03-26T21:27:49.015Z,6.97
2019-03-26T21:30:18.843Z,6.30
2019-03-26T21:32:48.026Z,5.77
2019-03-26T21:35:17.330Z,6.00
2019-03-26T21:37:46.769Z,5.60
2019-03-26T21:40:16.046Z,5.53
2019-03-26T21:42:45.233Z,6.73
2019-03-26T21:45:15.562Z,5.40
2019-03-26T21:47:44.728Z,5.30
2019-03-26T21:50:14.404Z,5.97
2019-03-26T21:52:43.911Z,4.97
2019-03-26T21:55:13.517Z,5.47
2019-03-26T21:57:42.884Z,6.57
2019-03-26T22:00:12.596Z,5.33
2019-03-26T22:02:41.695Z,6.20
2019-03-26T22:05:11.405Z,6.67
2019-03-26T22:07:40.376Z,5.97
2019-03-26T22:10:09.805Z,5.43
2019-03-26T22:12:38.695Z,5.70
2019-03-26T22:15:10.044Z,5.70
2019-03-26T22:17:38.963Z,5.43
2019-03-26T22:20:08.157Z,6.07
2019-03-26T22:22:37.024Z,5.17
2019-03-26T22:25:09.183Z,5.13
2019-03-26T22:27:38.192Z,5.50
2019-03-26T22:30:11.048Z,5.37
2019-03-26T22:32:40.074Z,5.97
2019-03-26T22:35:09.761Z,5.63
2019-03-26T22:37:38.635Z,5.40
2019-03-26T22:40:08.661Z,5.40
2019-03-26T22:42:37.501Z,5.23
2019-03-26T22:45:09.225Z,5.47
2019-03-26T22:47:40.181Z,4.87
2019-03-26T22:50:10.687Z,6.03
2019-03-26T22:52:40.015Z,5.87
2019-03-26T22:55:10.930Z,4.93
2019-03-26T22:57:40.051Z,4.63
2019-03-26T23:00:20.075Z,5.00
2019-03-26T23:02:49.098Z,5.57
2019-03-26T23:05:18.125Z,5.67
2019-03-26T23:07:48.324Z,5.10
2019-03-26T23:10:17.870Z,5.73
2019-03-26T23:12:46.721Z,6.60
2019-03-26T23:15:18.695Z,6.03
2019-03-26T23:17:47.774Z,5.80
2019-03-26T23:20:16.639Z,6.57
2019-03-26T23:22:47.443Z,5.67
2019-03-26T23:25:16.803Z,5.80
2019-03-26T23:27:45.677Z,6.40
2019-03-26T23:30:15.453Z,6.90
2019-03-26T23:32:44.401Z,6.07
2019-03-26T23:35:13.908Z,5.53
2019-03-26T23:37:43.033Z,6.43
2019-03-26T23:40:12.613Z,5.90
2019-03-26T23:42:41.463Z,6.50
2019-03-26T23:45:10.486Z,5.37
2019-03-26T23:47:39.399Z,6.23
2019-03-26T23:50:08.899Z,6.53
2019-03-26T23:52:38.108Z,6.67
2019-03-26T23:55:08.798Z,6.33
2019-03-26T23:57:37.824Z,7.53
